Time;durP1;ratioP1;P1;durP2;ratioP2;P2;SDS_P1;SDS_P2;PMS_P1;PMS_P2;Temp;Humidity;BMP_temperature;BMP_pressure;BME280_temperature;BME280_humidity;BME280_pressure;Samples;Min_cycle;Max_cycle;Signal;HPM_P1;HPM_P2
2024/02/29 00:01:35;;;;;;;0.68;0.68;;;;;;;0.65;77.91;101716.06;15931792;27;20126;-54
2024/02/29 00:09:11;;;;;;;1.70;1.10;;;;;;;0.27;79.71;101708.53;15973056;27;20129;-51
2024/02/29 00:16:45;;;;;;;1.75;1.15;;;;;;;0.48;78.94;101702.41;15990156;27;20402;-52
2024/02/29 00:24:23;;;;;;;0.00;0.00;;;;;;;0.68;78.02;101699.97;15967269;27;20096;-53
2024/02/29 00:32:00;;;;;;;0.10;0.10;;;;;;;0.45;79.02;101697.34;15936751;27;20047;-53
2024/02/29 00:39:35;;;;;;;1.00;0.90;;;;;;;0.44;78.39;101693.03;15936472;27;20092;-51
2024/02/29 00:47:09;;;;;;;0.80;0.73;;;;;;;0.16;79.65;101680.31;15927579;27;20043;-50
2024/02/29 00:54:46;;;;;;;0.00;0.00;;;;;;;-0.18;80.00;101682.09;15936516;27;20070;-52
2024/02/29 01:02:23;;;;;;;0.30;0.30;;;;;;;0.24;79.42;101688.50;15994784;27;20046;-52
2024/02/29 01:09:58;;;;;;;0.03;0.03;;;;;;;0.64;78.54;101680.06;15977873;27;20505;-50
2024/02/29 01:17:31;;;;;;;0.10;0.10;;;;;;;0.83;76.94;101684.69;15933854;27;20507;-54
2024/02/29 01:25:07;;;;;;;0.00;0.00;;;;;;;0.46;75.34;101690.28;15932453;27;20042;-51
2024/02/29 01:32:41;;;;;;;0.03;0.03;;;;;;;0.70;75.77;101679.56;15999293;27;20034;-53
2024/02/29 01:40:18;;;;;;;1.13;0.63;;;;;;;0.47;76.93;101662.91;16000946;27;20051;-49
2024/02/29 01:47:52;;;;;;;0.10;0.10;;;;;;;0.11;78.82;101653.44;15953033;27;20576;-50
2024/02/29 01:55:27;;;;;;;0.10;0.10;;;;;;;0.11;78.06;101646.38;15934290;27;20046;-50
2024/02/29 02:03:07;;;;;;;0.00;0.00;;;;;;;-0.12;79.13;101629.69;15913610;27;20118;-50
2024/02/29 02:10:42;;;;;;;0.20;0.20;;;;;;;-0.20;79.70;101618.03;15929623;27;20516;-50
2024/02/29 02:18:15;;;;;;;0.20;0.20;;;;;;;0.01;78.32;101615.53;15872014;28;20474;-51
2024/02/29 02:25:57;;;;;;;0.45;0.45;;;;;;;-0.67;81.62;101609.34;15857236;28;20092;-49
2024/02/29 02:33:31;;;;;;;0.28;0.28;;;;;;;-0.31;80.77;101584.59;15871481;28;20095;-50
2024/02/29 02:41:06;;;;;;;0.00;0.00;;;;;;;-0.54;81.35;101581.06;15870230;28;20160;-52
2024/02/29 02:48:39;;;;;;;0.10;0.10;;;;;;;-0.73;81.79;101560.56;15830845;28;20044;-49
2024/02/29 02:56:14;;;;;;;0.55;0.55;;;;;;;-0.90;82.51;101556.56;15801235;28;20442;-50
2024/02/29 03:03:48;;;;;;;0.00;0.00;;;;;;;-0.91;83.68;101554.88;15838711;28;20036;-51
2024/02/29 03:11:27;;;;;;;0.00;0.00;;;;;;;-0.72;83.00;101538.50;15863164;28;20057;-51
2024/02/29 03:19:00;;;;;;;2.72;1.13;;;;;;;-1.00;84.29;101536.28;15863898;28;20052;-51
2024/02/29 03:26:38;;;;;;;0.52;0.52;;;;;;;-0.13;79.80;101540.94;15864394;28;20065;-52
2024/02/29 03:34:14;;;;;;;0.00;0.00;;;;;;;-0.31;81.07;101535.31;15863287;28;20058;-52
2024/02/29 03:41:50;;;;;;;0.20;0.20;;;;;;;-0.27;79.75;101535.91;15862997;28;20108;-51
2024/02/29 03:49:23;;;;;;;3.35;1.63;;;;;;;-0.44;80.91;101531.09;15821296;28;20070;-51
2024/02/29 03:57:01;;;;;;;0.85;0.32;;;;;;;-0.35;80.49;101520.66;15863714;28;20047;-50
2024/02/29 04:04:39;;;;;;;0.40;0.40;;;;;;;-0.30;79.75;101513.22;15873423;28;20086;-51
2024/02/29 04:12:18;;;;;;;0.73;0.73;;;;;;;-0.84;81.18;101503.41;15873783;28;20268;-47
2024/02/29 04:19:53;;;;;;;0.20;0.20;;;;;;;-0.88;81.73;101499.31;15873121;28;20058;-50
2024/02/29 04:27:29;;;;;;;0.35;0.35;;;;;;;-0.54;78.87;101499.34;15865626;28;20075;-49
2024/02/29 04:35:03;;;;;;;0.40;0.40;;;;;;;-0.69;80.76;101488.19;15872899;28;20053;-51
2024/02/29 04:42:38;;;;;;;2.03;1.33;;;;;;;-0.71;81.32;101491.88;15870550;28;20135;-46
2024/02/29 04:50:12;;;;;;;0.40;0.40;;;;;;;-0.34;81.05;101484.59;15823127;28;20130;-51
2024/02/29 04:57:50;;;;;;;0.50;0.50;;;;;;;-0.32;80.01;101477.41;15806742;28;20449;-48
2024/02/29 05:05:29;;;;;;;0.13;0.13;;;;;;;-0.50;80.89;101481.50;15806797;28;20040;-48
2024/02/29 05:13:06;;;;;;;1.75;1.00;;;;;;;-0.59;81.08;101483.03;15878639;27;20054;-50
2024/02/29 05:20:40;;;;;;;2.78;2.47;;;;;;;-0.23;80.35;101478.44;15915960;27;20104;-50
2024/02/29 05:28:15;;;;;;;0.45;0.45;;;;;;;-0.10;80.73;101481.78;15933274;27;20457;-50
2024/02/29 05:35:51;;;;;;;0.40;0.40;;;;;;;-0.28;81.08;101476.16;15936199;27;20049;-48
2024/02/29 05:43:34;;;;;;;0.63;0.63;;;;;;;-1.02;83.28;101462.63;15996724;27;20042;-48
2024/02/29 05:51:13;;;;;;;0.30;0.30;;;;;;;-1.01;84.02;101464.31;15939327;27;20066;-49
2024/02/29 05:58:49;;;;;;;0.43;0.35;;;;;;;-0.54;83.24;101467.69;15935503;27;20415;-51
2024/02/29 06:06:30;;;;;;;0.00;0.00;;;;;;;-0.23;81.39;101470.53;15957498;27;20039;-49
2024/02/29 06:14:06;;;;;;;0.10;0.10;;;;;;;-0.21;82.04;101471.25;15937417;27;20039;-56
2024/02/29 06:21:41;;;;;;;0.50;0.50;;;;;;;-0.18;81.32;101463.13;15929501;27;20526;-49
2024/02/29 06:29:17;;;;;;;1.55;1.45;;;;;;;0.07;81.65;101461.97;15930150;27;20051;-52
2024/02/29 06:36:50;;;;;;;1.17;0.80;;;;;;;-0.08;81.86;101462.25;15929103;27;20069;-47
2024/02/29 06:44:29;;;;;;;1.55;1.30;;;;;;;0.09;81.59;101455.59;15928516;27;20054;-49
2024/02/29 06:52:09;;;;;;;0.85;0.85;;;;;;;-0.35;84.26;101446.81;15929756;27;20047;-49
2024/02/29 06:59:46;;;;;;;0.70;0.70;;;;;;;0.12;84.46;101441.31;15961673;27;20389;-48
2024/02/29 07:07:26;;;;;;;2.80;2.17;;;;;;;0.34;82.30;101443.03;15927780;27;20047;-50
2024/02/29 07:15:07;;;;;;;0.90;0.90;;;;;;;1.00;81.50;101438.34;15927407;27;20051;-48
2024/02/29 07:22:41;;;;;;;0.30;0.20;;;;;;;1.67;78.25;101429.00;15927949;27;20043;-52
2024/02/29 07:30:18;;;;;;;0.80;0.80;;;;;;;3.04;74.68;101429.69;15924380;27;20040;-50
2024/02/29 07:37:53;;;;;;;1.60;1.50;;;;;;;3.78;71.97;101420.84;15925895;27;20077;-51
2024/02/29 07:45:29;;;;;;;1.70;1.40;;;;;;;3.99;71.68;101419.72;15934484;27;20043;-48
2024/02/29 07:53:02;;;;;;;1.88;1.23;;;;;;;3.65;71.75;101416.84;15990967;27;20495;-48
2024/02/29 08:00:37;;;;;;;;;;;;;;;3.65;71.33;101379.69;15989638;27;20126;-49
2024/02/29 08:08:11;;;;;;;1.05;1.02;;;;;;;4.73;69.37;101418.53;15982157;27;20029;-47
2024/02/29 08:15:46;;;;;;;1.60;1.20;;;;;;;4.89;66.85;101417.78;15924164;27;20466;-47
2024/02/29 08:23:21;;;;;;;0.00;0.00;;;;;;;5.32;65.94;101414.22;15924638;27;20055;-47
2024/02/29 08:30:56;;;;;;;1.15;0.98;;;;;;;6.03;63.97;101405.00;15943147;27;20047;-50
2024/02/29 08:38:29;;;;;;;1.90;1.15;;;;;;;6.10;63.19;101384.66;15991541;27;20039;-49
2024/02/29 08:46:04;;;;;;;;;;;;;;;5.87;63.38;101397.75;15972234;27;20050;-46
2024/02/29 08:53:38;;;;;;;2.47;0.60;;;;;;;6.25;63.69;101388.38;15933716;27;19944;-51
2024/02/29 09:01:13;;;;;;;0.70;0.70;;;;;;;7.24;61.77;101381.03;15953885;27;20145;-49
2024/02/29 09:08:48;;;;;;;0.28;0.28;;;;;;;7.58;60.15;101370.84;15968766;27;20041;-49
2024/02/29 09:16:22;;;;;;;1.42;1.30;;;;;;;8.85;57.29;101371.22;15937020;27;20138;-49
2024/02/29 09:23:56;;;;;;;1.08;0.82;;;;;;;8.55;56.87;101363.16;15971087;27;20042;-50
2024/02/29 09:31:33;;;;;;;0.05;0.05;;;;;;;8.38;59.20;101357.13;16000440;27;20093;-51
2024/02/29 09:39:08;;;;;;;0.28;0.25;;;;;;;9.00;56.77;101364.06;16000178;27;20047;-50
2024/02/29 09:46:46;;;;;;;3.67;1.95;;;;;;;9.06;56.52;101351.75;15984277;27;20248;-48
2024/02/29 09:54:22;;;;;;;1.35;1.08;;;;;;;9.35;55.53;101337.50;15917902;27;20392;-48
2024/02/29 10:01:58;;;;;;;1.05;1.05;;;;;;;10.18;54.29;101334.25;15936709;27;20431;-49
2024/02/29 10:09:31;;;;;;;2.22;0.90;;;;;;;10.48;53.95;101336.78;15935808;27;20103;-51
2024/02/29 10:17:06;;;;;;;2.67;1.55;;;;;;;10.12;53.99;101315.44;15838882;22;20425;-49
2024/02/29 10:24:41;;;;;;;4.82;1.55;;;;;;;10.80;52.98;101319.25;15749664;28;20029;-47
2024/02/29 10:32:17;;;;;;;1.35;1.23;;;;;;;11.72;50.76;101299.16;15736718;28;20048;-50
2024/02/29 10:39:51;;;;;;;1.33;1.02;;;;;;;11.53;51.21;101263.16;15735942;28;20119;-49
2024/02/29 10:47:29;;;;;;;1.58;1.48;;;;;;;11.88;50.00;101269.22;15760451;28;20046;-50
2024/02/29 10:55:06;;;;;;;1.73;1.60;;;;;;;13.05;47.53;101274.81;15758910;28;20044;-48
2024/02/29 11:02:45;;;;;;;5.03;0.93;;;;;;;12.70;48.50;101264.38;15734413;28;20451;-51
2024/02/29 11:10:19;;;;;;;8.88;0.45;;;;;;;12.28;48.09;101263.00;15735764;28;20048;-50
2024/02/29 11:17:54;;;;;;;1.75;0.57;;;;;;;11.86;48.91;101216.66;15734408;28;20048;-48
2024/02/29 11:25:30;;;;;;;1.30;1.20;;;;;;;13.59;45.80;101212.34;15734237;28;20044;-49
2024/02/29 11:33:11;;;;;;;0.73;0.73;;;;;;;13.47;45.68;101196.03;15735401;28;20064;-49
2024/02/29 11:40:44;;;;;;;0.40;0.40;;;;;;;13.13;45.88;101185.66;15733288;28;20413;-47
2024/02/29 11:48:19;;;;;;;0.82;0.75;;;;;;;13.79;44.59;101167.13;15756687;28;20041;-48
2024/02/29 11:55:53;;;;;;;0.45;0.20;;;;;;;13.59;45.37;101157.56;15715287;28;20366;-48
2024/02/29 12:03:29;;;;;;;0.10;0.10;;;;;;;15.26;41.90;101145.50;15725357;28;20055;-46
2024/02/29 12:11:02;;;;;;;0.17;0.17;;;;;;;14.99;41.62;101138.81;15733601;28;20079;-50
2024/02/29 12:18:40;;;;;;;0.60;0.60;;;;;;;15.53;42.13;101120.72;15745227;28;20044;-50
2024/02/29 12:26:16;;;;;;;0.43;0.38;;;;;;;14.32;43.36;101100.19;15746901;28;20505;-49
2024/02/29 12:33:54;;;;;;;0.35;0.35;;;;;;;13.40;44.27;101081.19;15748313;28;20501;-50
2024/02/29 12:41:28;;;;;;;0.77;0.77;;;;;;;14.46;42.53;101078.19;15747371;28;20064;-48
2024/02/29 12:49:03;;;;;;;1.27;0.80;;;;;;;14.87;41.85;101065.78;15774829;28;20052;-48
2024/02/29 12:56:37;;;;;;;0.10;0.10;;;;;;;13.99;42.93;101047.41;15771958;28;20153;-49
2024/02/29 13:04:12;;;;;;;0.73;0.70;;;;;;;15.05;41.46;101035.97;15745065;28;20048;-50
2024/02/29 13:11:45;;;;;;;1.75;0.63;;;;;;;13.73;42.94;101014.25;15746141;28;20070;-48
2024/02/29 13:19:20;;;;;;;0.82;0.82;;;;;;;13.72;43.09;101003.69;15729157;28;20105;-50
2024/02/29 13:26:55;;;;;;;0.98;0.77;;;;;;;14.82;42.84;100998.09;15747477;28;20045;-51
2024/02/29 13:34:32;;;;;;;0.65;0.65;;;;;;;13.97;44.95;100988.25;15739906;28;20053;-52
2024/02/29 13:42:07;;;;;;;0.93;0.77;;;;;;;14.13;45.00;100965.22;15743678;28;20063;-50
2024/02/29 13:49:42;;;;;;;0.73;0.68;;;;;;;12.02;49.54;100949.88;15785074;28;20454;-50
2024/02/29 13:57:16;;;;;;;1.15;1.08;;;;;;;12.23;49.63;100959.50;15804649;28;20075;-49
2024/02/29 14:04:50;;;;;;;0.93;0.93;;;;;;;11.94;50.10;100945.59;15804473;28;20040;-49
2024/02/29 14:12:25;;;;;;;1.17;0.80;;;;;;;12.11;50.31;100937.00;15762670;28;20082;-51
2024/02/29 14:20:00;;;;;;;0.10;0.10;;;;;;;11.48;51.39;100933.09;15722896;28;20052;-49
2024/02/29 14:27:34;;;;;;;0.30;0.25;;;;;;;11.10;53.52;100934.84;15739427;28;20476;-48
2024/02/29 14:35:10;;;;;;;1.65;0.90;;;;;;;10.98;54.33;100916.66;15739266;28;20050;-50
2024/02/29 14:42:44;;;;;;;2.50;1.38;;;;;;;11.17;53.97;100911.47;15739006;28;20059;-48
2024/02/29 14:50:19;;;;;;;0.98;0.80;;;;;;;10.75;55.38;100905.53;15770985;28;20470;-51
2024/02/29 14:57:54;;;;;;;2.67;1.75;;;;;;;10.79;55.63;100895.22;15799394;28;20040;-52
2024/02/29 15:05:28;;;;;;;1.35;1.25;;;;;;;10.82;55.48;100892.09;15799794;28;20093;-50
2024/02/29 15:13:02;;;;;;;1.38;0.98;;;;;;;10.67;56.30;100877.03;15753540;28;20128;-51
2024/02/29 15:20:41;;;;;;;1.10;1.05;;;;;;;10.41;57.29;100877.06;15719709;28;20478;-49
2024/02/29 15:28:15;;;;;;;1.48;1.23;;;;;;;10.08;58.21;100861.72;15719065;28;20041;-51
2024/02/29 15:35:50;;;;;;;0.70;0.70;;;;;;;10.54;57.21;100847.53;15736095;28;20428;-50
2024/02/29 15:43:25;;;;;;;1.25;0.38;;;;;;;10.28;59.65;100845.66;15736832;28;20056;-49
2024/02/29 15:51:01;;;;;;;3.72;2.65;;;;;;;10.06;60.17;100839.63;15797041;28;20052;-48
2024/02/29 15:58:34;;;;;;;8.68;1.40;;;;;;;9.91;60.72;100828.25;15812459;28;20609;-52
2024/02/29 16:06:09;;;;;;;0.90;0.90;;;;;;;9.89;61.20;100822.28;15811428;28;20044;-50
2024/02/29 16:13:43;;;;;;;1.08;0.50;;;;;;;9.27;62.18;100834.03;15758546;28;20109;-44
2024/02/29 16:21:29;;;;;;;0.00;0.00;;;;;;;9.01;61.06;100821.34;15747318;28;20185;-44
2024/02/29 16:29:03;;;;;;;0.50;0.50;;;;;;;8.86;61.30;100816.94;15743535;28;20495;-49
2024/02/29 16:36:39;;;;;;;0.17;0.17;;;;;;;8.75;62.18;100814.81;15742263;28;20451;-46
2024/02/29 16:44:13;;;;;;;2.17;1.00;;;;;;;8.23;63.93;100816.03;15744787;28;20057;-48
2024/02/29 16:51:48;;;;;;;0.05;0.05;;;;;;;8.09;65.00;100811.59;15803355;28;20097;-45
2024/02/29 16:59:25;;;;;;;0.15;0.15;;;;;;;7.91;65.68;100804.84;15803897;28;20135;-47
2024/02/29 17:07:02;;;;;;;0.95;0.90;;;;;;;7.64;66.19;100792.25;15805710;28;20113;-51
2024/02/29 17:14:36;;;;;;;0.45;0.45;;;;;;;7.78;65.70;100788.69;15744275;28;20111;-48
2024/02/29 17:22:11;;;;;;;;;;;;;;;7.90;65.59;100783.69;15763040;28;20460;-49
2024/02/29 17:29:47;;;;;;;0.35;0.22;;;;;;;7.89;65.46;100790.03;15806847;28;20333;-47
2024/02/29 17:37:22;;;;;;;0.22;0.22;;;;;;;7.83;66.15;100780.09;15804015;28;20051;-48
2024/02/29 17:44:57;;;;;;;0.65;0.65;;;;;;;7.85;65.83;100775.41;15800008;28;20048;-50
2024/02/29 17:52:31;;;;;;;0.08;0.08;;;;;;;8.25;64.49;100773.88;15742678;28;20086;-49
2024/02/29 18:00:06;;;;;;;0.38;0.38;;;;;;;8.22;65.21;100762.78;15769096;28;20599;-45
2024/02/29 18:07:42;;;;;;;0.90;0.75;;;;;;;8.13;64.98;100756.72;15793862;28;20052;-48
2024/02/29 18:15:16;;;;;;;0.10;0.10;;;;;;;8.26;64.82;100750.66;15833747;28;20043;-48
2024/02/29 18:22:50;;;;;;;1.25;0.43;;;;;;;8.26;64.91;100742.66;15866182;28;20048;-50
2024/02/29 18:30:24;;;;;;;0.38;0.38;;;;;;;8.63;63.83;100733.44;15857262;28;20499;-47
2024/02/29 18:37:58;;;;;;;0.70;0.20;;;;;;;8.34;65.56;100719.22;15864675;28;20040;-48
2024/02/29 18:45:32;;;;;;;5.57;0.88;;;;;;;8.63;64.93;100710.19;15857014;28;20064;-48
2024/02/29 18:53:06;;;;;;;;;;;;;;;8.20;67.63;100698.78;15856031;28;20055;-49
2024/02/29 19:00:40;;;;;;;0.43;0.43;;;;;;;8.19;69.04;100694.44;15835413;28;19973;-49
2024/02/29 19:08:15;;;;;;;0.10;0.10;;;;;;;8.02;70.35;100687.75;15846808;28;20048;-49
2024/02/29 19:15:50;;;;;;;0.95;0.47;;;;;;;7.92;71.61;100683.56;15803410;28;20117;-47
2024/02/29 19:23:31;;;;;;;0.75;0.47;;;;;;;7.83;72.76;100673.22;15800306;28;20056;-50
2024/02/29 19:31:06;;;;;;;7.13;0.63;;;;;;;7.99;72.92;100656.91;15793344;28;20046;-48
2024/02/29 19:38:41;;;;;;;0.90;0.90;;;;;;;8.13;72.86;100661.31;15790128;28;20097;-48
2024/02/29 19:46:14;;;;;;;0.82;0.80;;;;;;;7.83;74.27;100655.38;15785495;28;20052;-48
2024/02/29 19:53:49;;;;;;;;;;;;;;;7.87;74.46;100640.56;15796244;28;20048;-48
2024/02/29 20:01:23;;;;;;;0.28;0.28;;;;;;;7.76;75.26;100635.78;15770162;28;20149;-47
2024/02/29 20:08:58;;;;;;;1.25;1.15;;;;;;;7.73;75.41;100628.13;15786773;28;20072;-47
2024/02/29 20:16:31;;;;;;;0.70;0.45;;;;;;;7.88;74.73;100615.53;15841493;28;20503;-47
2024/02/29 20:24:08;;;;;;;1.52;0.95;;;;;;;7.79;75.21;100619.38;15857353;28;20052;-46
2024/02/29 20:31:42;;;;;;;0.17;0.17;;;;;;;8.02;73.66;100604.88;15839834;28;20124;-47
2024/02/29 20:39:18;;;;;;;0.95;0.95;;;;;;;7.80;74.72;100599.63;15866221;28;20121;-46
2024/02/29 20:46:56;;;;;;;0.55;0.55;;;;;;;7.71;75.04;100587.44;15859692;28;20500;-47
2024/02/29 20:54:30;;;;;;;1.00;0.88;;;;;;;8.14;73.53;100581.94;15842151;28;20051;-47
2024/02/29 21:02:06;;;;;;;0.65;0.65;;;;;;;8.14;73.25;100572.06;15850745;28;20046;-48
2024/02/29 21:09:41;;;;;;;3.83;1.88;;;;;;;7.90;74.19;100570.69;15824479;28;20416;-50
2024/02/29 21:17:15;;;;;;;9.48;0.60;;;;;;;8.18;73.69;100564.47;15865859;28;20116;-48
2024/02/29 21:24:51;;;;;;;0.35;0.35;;;;;;;7.83;74.61;100553.81;15847952;28;20138;-47
2024/02/29 21:32:25;;;;;;;0.75;0.57;;;;;;;7.96;73.80;100541.53;15865789;28;20050;-46
2024/02/29 21:40:00;;;;;;;0.75;0.75;;;;;;;7.58;74.46;100547.28;15865471;28;20051;-51
2024/02/29 21:47:34;;;;;;;0.43;0.43;;;;;;;7.75;74.41;100539.78;15845662;28;20048;-51
2024/02/29 21:55:10;;;;;;;;;;;;;;;7.35;75.02;100537.66;15864633;28;20646;-47
2024/02/29 22:02:44;;;;;;;0.60;0.60;;;;;;;7.06;75.72;100521.84;15855399;28;19919;-48
2024/02/29 22:10:21;;;;;;;0.52;0.52;;;;;;;6.94;75.86;100524.19;15832869;28;20131;-49
2024/02/29 22:17:55;;;;;;;0.88;0.65;;;;;;;6.96;76.73;100516.81;15835971;22;20079;-52
2024/02/29 22:25:30;;;;;;;0.57;0.57;;;;;;;6.86;76.96;100503.81;15796181;28;20413;-54
2024/02/29 22:33:04;;;;;;;1.27;0.75;;;;;;;6.73;77.44;100501.03;15770169;28;20071;-50
2024/02/29 22:40:39;;;;;;;0.65;0.65;;;;;;;6.59;77.79;100483.25;15776418;28;20063;-53
2024/02/29 22:48:13;;;;;;;0.45;0.45;;;;;;;6.68;77.45;100476.75;15795251;28;20457;-51
2024/02/29 22:55:48;;;;;;;1.92;0.95;;;;;;;6.55;78.95;100465.97;15796364;28;20035;-50
2024/02/29 23:03:21;;;;;;;1.70;1.60;;;;;;;6.89;78.19;100455.38;15796694;28;20048;-51
2024/02/29 23:10:57;;;;;;;0.65;0.60;;;;;;;6.65;79.98;100451.28;15792546;28;20052;-49
2024/02/29 23:18:30;;;;;;;0.13;0.13;;;;;;;6.68;80.83;100446.59;15797657;28;20051;-51
2024/02/29 23:26:05;;;;;;;;;;;;;;;6.95;80.43;100429.81;15797138;28;20208;-51
2024/02/29 23:33:39;;;;;;;0.25;0.25;;;;;;;6.93;79.40;100385.63;15794883;28;19920;-51
2024/02/29 23:41:14;;;;;;;1.55;0.93;;;;;;;7.29;78.79;100425.50;15792822;28;20036;-50
2024/02/29 23:48:47;;;;;;;0.15;0.15;;;;;;;6.97;80.08;100424.25;15796256;28;20135;-53
2024/02/29 23:56:22;;;;;;;;;;;;;;;6.89;80.40;100417.22;15792138;28;20468;-50
